sensor_id;sensor_type;location;lat;lon;timestamp;P1;durP1;ratioP1;P2;durP2;ratioP2
14736;SDS011;7459;53.590;10.062;2023-11-21T00:00:18;12.35;;;5.88;;
14736;SDS011;7459;53.590;10.062;2023-11-21T00:02:44;13.75;;;5.57;;
14736;SDS011;7459;53.590;10.062;2023-11-21T00:05:11;13.60;;;6.40;;
14736;SDS011;7459;53.590;10.062;2023-11-21T00:07:41;15.32;;;6.22;;
14736;SDS011;7459;53.590;10.062;2023-11-21T00:10:08;16.52;;;6.47;;
14736;SDS011;7459;53.590;10.062;2023-11-21T00:12:36;19.25;;;7.50;;
14736;SDS011;7459;53.590;10.062;2023-11-21T00:15:02;18.63;;;8.63;;
14736;SDS011;7459;53.590;10.062;2023-11-21T00:17:30;18.90;;;7.88;;
14736;SDS011;7459;53.590;10.062;2023-11-21T00:19:56;20.42;;;8.48;;
14736;SDS011;7459;53.590;10.062;2023-11-21T00:22:21;19.55;;;8.30;;
14736;SDS011;7459;53.590;10.062;2023-11-21T00:24:47;21.20;;;10.40;;
14736;SDS011;7459;53.590;10.062;2023-11-21T00:27:13;19.27;;;9.23;;
14736;SDS011;7459;53.590;10.062;2023-11-21T00:29:39;24.77;;;9.63;;
14736;SDS011;7459;53.590;10.062;2023-11-21T00:32:05;18.10;;;9.27;;
14736;SDS011;7459;53.590;10.062;2023-11-21T00:34:32;18.02;;;9.05;;
14736;SDS011;7459;53.590;10.062;2023-11-21T00:36:58;16.98;;;7.20;;
14736;SDS011;7459;53.590;10.062;2023-11-21T00:39:24;16.70;;;7.20;;
14736;SDS011;7459;53.590;10.062;2023-11-21T00:41:51;17.17;;;6.20;;
14736;SDS011;7459;53.590;10.062;2023-11-21T00:44:17;17.33;;;6.72;;
14736;SDS011;7459;53.590;10.062;2023-11-21T00:46:42;14.07;;;5.95;;
14736;SDS011;7459;53.590;10.062;2023-11-21T00:49:08;14.87;;;6.73;;
14736;SDS011;7459;53.590;10.062;2023-11-21T00:51:34;15.45;;;6.53;;
14736;SDS011;7459;53.590;10.062;2023-11-21T00:53:59;17.00;;;7.13;;
14736;SDS011;7459;53.590;10.062;2023-11-21T00:56:26;15.52;;;7.20;;
14736;SDS011;7459;53.590;10.062;2023-11-21T00:58:51;15.90;;;6.67;;
14736;SDS011;7459;53.590;10.062;2023-11-21T01:01:18;16.27;;;7.32;;
14736;SDS011;7459;53.590;10.062;2023-11-21T01:03:47;18.83;;;7.95;;
14736;SDS011;7459;53.590;10.062;2023-11-21T01:06:13;17.45;;;7.28;;
14736;SDS011;7459;53.590;10.062;2023-11-21T01:08:40;20.52;;;8.88;;
14736;SDS011;7459;53.590;10.062;2023-11-21T01:11:06;18.27;;;7.87;;
14736;SDS011;7459;53.590;10.062;2023-11-21T01:13:33;17.55;;;7.82;;
14736;SDS011;7459;53.590;10.062;2023-11-21T01:16:00;20.35;;;7.50;;
14736;SDS011;7459;53.590;10.062;2023-11-21T01:18:26;17.53;;;7.27;;
14736;SDS011;7459;53.590;10.062;2023-11-21T01:20:51;16.67;;;6.97;;
14736;SDS011;7459;53.590;10.062;2023-11-21T01:23:20;18.63;;;7.70;;
14736;SDS011;7459;53.590;10.062;2023-11-21T01:25:45;17.60;;;7.60;;
14736;SDS011;7459;53.590;10.062;2023-11-21T01:28:11;17.20;;;7.75;;
14736;SDS011;7459;53.590;10.062;2023-11-21T01:30:37;18.37;;;7.70;;
14736;SDS011;7459;53.590;10.062;2023-11-21T01:33:02;15.82;;;7.60;;
14736;SDS011;7459;53.590;10.062;2023-11-21T01:35:28;19.60;;;7.80;;
14736;SDS011;7459;53.590;10.062;2023-11-21T01:37:55;17.88;;;7.85;;
14736;SDS011;7459;53.590;10.062;2023-11-21T01:40:21;16.42;;;7.35;;
14736;SDS011;7459;53.590;10.062;2023-11-21T01:42:46;16.63;;;7.27;;
14736;SDS011;7459;53.590;10.062;2023-11-21T01:45:13;14.55;;;6.40;;
14736;SDS011;7459;53.590;10.062;2023-11-21T01:47:40;15.38;;;7.22;;
14736;SDS011;7459;53.590;10.062;2023-11-21T01:50:10;14.13;;;5.85;;
14736;SDS011;7459;53.590;10.062;2023-11-21T01:52:41;13.55;;;6.68;;
14736;SDS011;7459;53.590;10.062;2023-11-21T01:55:13;12.63;;;5.93;;
14736;SDS011;7459;53.590;10.062;2023-11-21T01:57:43;13.60;;;6.32;;
14736;SDS011;7459;53.590;10.062;2023-11-21T02:00:09;11.40;;;5.18;;
14736;SDS011;7459;53.590;10.062;2023-11-21T02:02:47;13.43;;;5.35;;
14736;SDS011;7459;53.590;10.062;2023-11-21T02:05:16;11.38;;;5.65;;
14736;SDS011;7459;53.590;10.062;2023-11-21T02:07:43;12.30;;;5.55;;
14736;SDS011;7459;53.590;10.062;2023-11-21T02:10:13;12.60;;;6.10;;
14736;SDS011;7459;53.590;10.062;2023-11-21T02:12:40;11.10;;;5.18;;
14736;SDS011;7459;53.590;10.062;2023-11-21T02:15:12;11.48;;;5.20;;
14736;SDS011;7459;53.590;10.062;2023-11-21T02:17:45;10.75;;;5.03;;
14736;SDS011;7459;53.590;10.062;2023-11-21T02:20:12;10.70;;;4.95;;
14736;SDS011;7459;53.590;10.062;2023-11-21T02:22:43;9.88;;;5.10;;
14736;SDS011;7459;53.590;10.062;2023-11-21T02:25:31;9.43;;;4.45;;
14736;SDS011;7459;53.590;10.062;2023-11-21T02:27:59;9.13;;;5.13;;
14736;SDS011;7459;53.590;10.062;2023-11-21T02:30:27;12.82;;;4.55;;
14736;SDS011;7459;53.590;10.062;2023-11-21T02:32:53;9.23;;;4.55;;
14736;SDS011;7459;53.590;10.062;2023-11-21T02:35:22;10.05;;;4.40;;
14736;SDS011;7459;53.590;10.062;2023-11-21T02:37:48;8.68;;;4.45;;
14736;SDS011;7459;53.590;10.062;2023-11-21T02:40:14;11.02;;;4.95;;
14736;SDS011;7459;53.590;10.062;2023-11-21T02:42:45;9.98;;;4.45;;
14736;SDS011;7459;53.590;10.062;2023-11-21T02:45:18;9.48;;;4.38;;
14736;SDS011;7459;53.590;10.062;2023-11-21T02:47:46;12.35;;;5.80;;
14736;SDS011;7459;53.590;10.062;2023-11-21T02:50:13;10.65;;;4.50;;
14736;SDS011;7459;53.590;10.062;2023-11-21T02:52:39;12.53;;;4.83;;
14736;SDS011;7459;53.590;10.062;2023-11-21T02:55:05;10.20;;;4.80;;
14736;SDS011;7459;53.590;10.062;2023-11-21T02:57:32;9.23;;;3.95;;
14736;SDS011;7459;53.590;10.062;2023-11-21T02:59:58;9.77;;;4.27;;
14736;SDS011;7459;53.590;10.062;2023-11-21T03:05:00;8.07;;;3.97;;
14736;SDS011;7459;53.590;10.062;2023-11-21T03:07:26;13.48;;;4.30;;
14736;SDS011;7459;53.590;10.062;2023-11-21T03:09:51;11.67;;;5.40;;
14736;SDS011;7459;53.590;10.062;2023-11-21T03:12:17;12.03;;;4.53;;
14736;SDS011;7459;53.590;10.062;2023-11-21T03:14:44;9.50;;;4.05;;
14736;SDS011;7459;53.590;10.062;2023-11-21T03:17:10;9.50;;;4.30;;
14736;SDS011;7459;53.590;10.062;2023-11-21T03:19:36;10.32;;;5.05;;
14736;SDS011;7459;53.590;10.062;2023-11-21T03:22:02;13.35;;;4.47;;
14736;SDS011;7459;53.590;10.062;2023-11-21T03:24:29;10.07;;;5.20;;
14736;SDS011;7459;53.590;10.062;2023-11-21T03:26:55;11.95;;;4.40;;
14736;SDS011;7459;53.590;10.062;2023-11-21T03:29:21;9.17;;;3.93;;
14736;SDS011;7459;53.590;10.062;2023-11-21T03:31:46;12.55;;;4.90;;
14736;SDS011;7459;53.590;10.062;2023-11-21T03:34:16;9.80;;;4.70;;
14736;SDS011;7459;53.590;10.062;2023-11-21T03:36:49;10.05;;;4.50;;
14736;SDS011;7459;53.590;10.062;2023-11-21T03:39:14;12.00;;;4.70;;
14736;SDS011;7459;53.590;10.062;2023-11-21T03:41:40;10.95;;;4.60;;
14736;SDS011;7459;53.590;10.062;2023-11-21T03:44:06;10.67;;;4.67;;
14736;SDS011;7459;53.590;10.062;2023-11-21T03:46:31;9.25;;;4.47;;
14736;SDS011;7459;53.590;10.062;2023-11-21T03:48:57;9.87;;;4.50;;
14736;SDS011;7459;53.590;10.062;2023-11-21T03:51:23;13.05;;;6.00;;
14736;SDS011;7459;53.590;10.062;2023-11-21T03:53:49;9.80;;;4.50;;
14736;SDS011;7459;53.590;10.062;2023-11-21T03:56:14;11.05;;;5.88;;
14736;SDS011;7459;53.590;10.062;2023-11-21T03:58:40;11.30;;;5.00;;
14736;SDS011;7459;53.590;10.062;2023-11-21T04:01:06;12.52;;;4.97;;
14736;SDS011;7459;53.590;10.062;2023-11-21T04:03:31;11.03;;;4.97;;
14736;SDS011;7459;53.590;10.062;2023-11-21T04:05:57;12.23;;;5.22;;
14736;SDS011;7459;53.590;10.062;2023-11-21T04:08:23;11.40;;;4.63;;
14736;SDS011;7459;53.590;10.062;2023-11-21T04:10:50;10.63;;;5.63;;
14736;SDS011;7459;53.590;10.062;2023-11-21T04:13:18;9.57;;;5.05;;
14736;SDS011;7459;53.590;10.062;2023-11-21T04:15:44;12.83;;;5.90;;
14736;SDS011;7459;53.590;10.062;2023-11-21T04:18:09;10.82;;;4.53;;
14736;SDS011;7459;53.590;10.062;2023-11-21T04:20:35;11.63;;;5.50;;
14736;SDS011;7459;53.590;10.062;2023-11-21T04:23:01;13.77;;;5.55;;
14736;SDS011;7459;53.590;10.062;2023-11-21T04:25:28;13.07;;;5.90;;
14736;SDS011;7459;53.590;10.062;2023-11-21T04:27:54;12.03;;;5.30;;
14736;SDS011;7459;53.590;10.062;2023-11-21T04:30:19;9.38;;;4.50;;
14736;SDS011;7459;53.590;10.062;2023-11-21T04:32:45;9.55;;;4.78;;
14736;SDS011;7459;53.590;10.062;2023-11-21T04:35:11;11.43;;;5.78;;
14736;SDS011;7459;53.590;10.062;2023-11-21T04:37:37;12.40;;;5.83;;
14736;SDS011;7459;53.590;10.062;2023-11-21T04:40:03;10.20;;;4.93;;
14736;SDS011;7459;53.590;10.062;2023-11-21T04:42:33;10.37;;;5.20;;
14736;SDS011;7459;53.590;10.062;2023-11-21T04:45:00;10.15;;;4.82;;
14736;SDS011;7459;53.590;10.062;2023-11-21T04:47:26;9.80;;;4.93;;
14736;SDS011;7459;53.590;10.062;2023-11-21T04:49:52;10.80;;;5.20;;
14736;SDS011;7459;53.590;10.062;2023-11-21T04:52:17;9.32;;;4.60;;
14736;SDS011;7459;53.590;10.062;2023-11-21T04:54:45;10.10;;;4.53;;
14736;SDS011;7459;53.590;10.062;2023-11-21T04:57:10;9.02;;;4.72;;
14736;SDS011;7459;53.590;10.062;2023-11-21T04:59:37;10.82;;;4.90;;
14736;SDS011;7459;53.590;10.062;2023-11-21T05:02:02;13.57;;;4.93;;
14736;SDS011;7459;53.590;10.062;2023-11-21T05:04:30;10.20;;;5.30;;
14736;SDS011;7459;53.590;10.062;2023-11-21T05:06:55;12.05;;;5.63;;
14736;SDS011;7459;53.590;10.062;2023-11-21T05:09:21;12.68;;;4.90;;
14736;SDS011;7459;53.590;10.062;2023-11-21T05:11:47;9.63;;;5.68;;
14736;SDS011;7459;53.590;10.062;2023-11-21T05:14:13;11.20;;;5.37;;
14736;SDS011;7459;53.590;10.062;2023-11-21T05:16:39;10.95;;;5.22;;
14736;SDS011;7459;53.590;10.062;2023-11-21T05:19:04;10.07;;;4.20;;
14736;SDS011;7459;53.590;10.062;2023-11-21T05:21:31;11.57;;;5.00;;
14736;SDS011;7459;53.590;10.062;2023-11-21T05:23:57;12.48;;;5.78;;
14736;SDS011;7459;53.590;10.062;2023-11-21T05:26:23;13.68;;;5.43;;
14736;SDS011;7459;53.590;10.062;2023-11-21T05:28:49;11.37;;;6.00;;
14736;SDS011;7459;53.590;10.062;2023-11-21T05:31:15;10.30;;;5.53;;
14736;SDS011;7459;53.590;10.062;2023-11-21T05:33:41;12.38;;;5.78;;
14736;SDS011;7459;53.590;10.062;2023-11-21T05:36:07;10.52;;;5.30;;
14736;SDS011;7459;53.590;10.062;2023-11-21T05:38:35;10.93;;;5.35;;
14736;SDS011;7459;53.590;10.062;2023-11-21T05:41:01;10.45;;;4.70;;
14736;SDS011;7459;53.590;10.062;2023-11-21T05:43:28;9.88;;;4.72;;
14736;SDS011;7459;53.590;10.062;2023-11-21T05:45:55;10.07;;;4.95;;
14736;SDS011;7459;53.590;10.062;2023-11-21T05:48:21;10.27;;;4.60;;
14736;SDS011;7459;53.590;10.062;2023-11-21T05:50:47;11.05;;;5.07;;
14736;SDS011;7459;53.590;10.062;2023-11-21T05:53:14;13.48;;;6.25;;
14736;SDS011;7459;53.590;10.062;2023-11-21T05:55:40;12.85;;;5.10;;
14736;SDS011;7459;53.590;10.062;2023-11-21T05:58:07;11.70;;;5.38;;
14736;SDS011;7459;53.590;10.062;2023-11-21T06:00:32;10.20;;;5.60;;
14736;SDS011;7459;53.590;10.062;2023-11-21T06:02:58;11.15;;;4.90;;
14736;SDS011;7459;53.590;10.062;2023-11-21T06:05:26;12.90;;;5.53;;
14736;SDS011;7459;53.590;10.062;2023-11-21T06:07:52;13.30;;;6.00;;
14736;SDS011;7459;53.590;10.062;2023-11-21T06:10:20;10.73;;;5.35;;
14736;SDS011;7459;53.590;10.062;2023-11-21T06:12:48;14.50;;;6.15;;
14736;SDS011;7459;53.590;10.062;2023-11-21T06:15:14;12.68;;;5.63;;
14736;SDS011;7459;53.590;10.062;2023-11-21T06:17:41;12.20;;;6.15;;
14736;SDS011;7459;53.590;10.062;2023-11-21T06:20:11;10.38;;;5.28;;
14736;SDS011;7459;53.590;10.062;2023-11-21T06:22:41;10.45;;;5.32;;
14736;SDS011;7459;53.590;10.062;2023-11-21T06:25:08;11.80;;;5.78;;
14736;SDS011;7459;53.590;10.062;2023-11-21T06:27:37;9.32;;;4.78;;
14736;SDS011;7459;53.590;10.062;2023-11-21T06:30:06;11.10;;;5.20;;
14736;SDS011;7459;53.590;10.062;2023-11-21T06:32:34;12.00;;;5.20;;
14736;SDS011;7459;53.590;10.062;2023-11-21T06:35:01;14.10;;;5.50;;
14736;SDS011;7459;53.590;10.062;2023-11-21T06:37:29;9.95;;;4.72;;
14736;SDS011;7459;53.590;10.062;2023-11-21T06:39:55;10.57;;;5.28;;
14736;SDS011;7459;53.590;10.062;2023-11-21T06:42:23;13.13;;;5.60;;
14736;SDS011;7459;53.590;10.062;2023-11-21T06:44:50;10.18;;;5.30;;
14736;SDS011;7459;53.590;10.062;2023-11-21T06:47:22;12.18;;;5.38;;
14736;SDS011;7459;53.590;10.062;2023-11-21T06:49:51;11.40;;;5.38;;
14736;SDS011;7459;53.590;10.062;2023-11-21T06:52:18;13.23;;;5.60;;
14736;SDS011;7459;53.590;10.062;2023-11-21T06:54:44;13.15;;;4.80;;
14736;SDS011;7459;53.590;10.062;2023-11-21T06:57:12;12.65;;;5.00;;
14736;SDS011;7459;53.590;10.062;2023-11-21T06:59:38;14.23;;;5.40;;
14736;SDS011;7459;53.590;10.062;2023-11-21T07:02:04;13.32;;;5.47;;
14736;SDS011;7459;53.590;10.062;2023-11-21T07:04:31;14.85;;;4.90;;
14736;SDS011;7459;53.590;10.062;2023-11-21T07:07:01;11.73;;;5.43;;
14736;SDS011;7459;53.590;10.062;2023-11-21T07:09:28;12.23;;;5.18;;
14736;SDS011;7459;53.590;10.062;2023-11-21T07:11:54;13.48;;;5.47;;
14736;SDS011;7459;53.590;10.062;2023-11-21T07:14:21;11.40;;;5.65;;
14736;SDS011;7459;53.590;10.062;2023-11-21T07:16:46;12.57;;;5.40;;
14736;SDS011;7459;53.590;10.062;2023-11-21T07:19:13;10.97;;;4.93;;
14736;SDS011;7459;53.590;10.062;2023-11-21T07:21:39;13.15;;;5.60;;
14736;SDS011;7459;53.590;10.062;2023-11-21T07:24:05;10.50;;;5.00;;
14736;SDS011;7459;53.590;10.062;2023-11-21T07:26:33;11.55;;;5.38;;
14736;SDS011;7459;53.590;10.062;2023-11-21T07:28:59;10.63;;;5.20;;
14736;SDS011;7459;53.590;10.062;2023-11-21T07:31:27;10.60;;;5.32;;
14736;SDS011;7459;53.590;10.062;2023-11-21T07:33:54;9.18;;;5.18;;
14736;SDS011;7459;53.590;10.062;2023-11-21T07:36:19;10.40;;;5.37;;
14736;SDS011;7459;53.590;10.062;2023-11-21T07:38:48;9.65;;;5.28;;
14736;SDS011;7459;53.590;10.062;2023-11-21T07:41:14;11.75;;;5.75;;
14736;SDS011;7459;53.590;10.062;2023-11-21T07:43:43;11.45;;;5.55;;
14736;SDS011;7459;53.590;10.062;2023-11-21T07:46:09;9.40;;;5.35;;
14736;SDS011;7459;53.590;10.062;2023-11-21T07:48:37;10.77;;;5.10;;
14736;SDS011;7459;53.590;10.062;2023-11-21T07:51:04;13.02;;;5.07;;
14736;SDS011;7459;53.590;10.062;2023-11-21T07:53:31;10.95;;;4.70;;
14736;SDS011;7459;53.590;10.062;2023-11-21T07:55:58;10.85;;;4.65;;
14736;SDS011;7459;53.590;10.062;2023-11-21T07:58:28;11.25;;;4.28;;
14736;SDS011;7459;53.590;10.062;2023-11-21T08:00:53;10.07;;;4.43;;
14736;SDS011;7459;53.590;10.062;2023-11-21T08:03:19;9.83;;;4.93;;
14736;SDS011;7459;53.590;10.062;2023-11-21T08:05:46;9.13;;;3.67;;
14736;SDS011;7459;53.590;10.062;2023-11-21T08:08:12;8.23;;;4.05;;
14736;SDS011;7459;53.590;10.062;2023-11-21T08:10:38;8.70;;;4.30;;
14736;SDS011;7459;53.590;10.062;2023-11-21T08:13:04;9.30;;;4.50;;
14736;SDS011;7459;53.590;10.062;2023-11-21T08:15:31;8.40;;;4.13;;
14736;SDS011;7459;53.590;10.062;2023-11-21T08:17:57;8.88;;;4.22;;
14736;SDS011;7459;53.590;10.062;2023-11-21T08:20:26;7.78;;;3.95;;
14736;SDS011;7459;53.590;10.062;2023-11-21T08:22:53;8.23;;;3.90;;
14736;SDS011;7459;53.590;10.062;2023-11-21T08:25:20;9.68;;;3.85;;
14736;SDS011;7459;53.590;10.062;2023-11-21T08:27:46;7.20;;;3.30;;
14736;SDS011;7459;53.590;10.062;2023-11-21T08:30:12;8.43;;;3.57;;
14736;SDS011;7459;53.590;10.062;2023-11-21T08:32:41;8.95;;;3.53;;
14736;SDS011;7459;53.590;10.062;2023-11-21T08:35:08;6.60;;;3.17;;
14736;SDS011;7459;53.590;10.062;2023-11-21T08:37:34;8.05;;;4.22;;
14736;SDS011;7459;53.590;10.062;2023-11-21T08:40:02;7.53;;;3.65;;
14736;SDS011;7459;53.590;10.062;2023-11-21T08:42:34;9.60;;;3.40;;
14736;SDS011;7459;53.590;10.062;2023-11-21T08:45:00;7.50;;;3.15;;
14736;SDS011;7459;53.590;10.062;2023-11-21T08:47:26;8.02;;;3.13;;
14736;SDS011;7459;53.590;10.062;2023-11-21T08:49:52;7.57;;;3.23;;
14736;SDS011;7459;53.590;10.062;2023-11-21T08:52:18;7.68;;;3.05;;
14736;SDS011;7459;53.590;10.062;2023-11-21T08:54:51;7.25;;;2.83;;
14736;SDS011;7459;53.590;10.062;2023-11-21T08:57:21;5.68;;;2.40;;
14736;SDS011;7459;53.590;10.062;2023-11-21T08:59:47;7.70;;;3.53;;
14736;SDS011;7459;53.590;10.062;2023-11-21T09:02:13;7.07;;;2.83;;
14736;SDS011;7459;53.590;10.062;2023-11-21T09:04:39;7.00;;;3.13;;
14736;SDS011;7459;53.590;10.062;2023-11-21T09:07:04;7.32;;;3.63;;
14736;SDS011;7459;53.590;10.062;2023-11-21T09:09:30;8.47;;;3.57;;
14736;SDS011;7459;53.590;10.062;2023-11-21T09:11:56;8.73;;;3.67;;
14736;SDS011;7459;53.590;10.062;2023-11-21T09:14:22;10.93;;;3.95;;
14736;SDS011;7459;53.590;10.062;2023-11-21T09:16:47;8.20;;;3.60;;
14736;SDS011;7459;53.590;10.062;2023-11-21T09:19:15;7.63;;;3.43;;
14736;SDS011;7459;53.590;10.062;2023-11-21T09:21:41;10.10;;;2.90;;
14736;SDS011;7459;53.590;10.062;2023-11-21T09:24:07;7.03;;;3.13;;
14736;SDS011;7459;53.590;10.062;2023-11-21T09:26:34;6.75;;;2.85;;
14736;SDS011;7459;53.590;10.062;2023-11-21T09:28:59;7.22;;;3.55;;
14736;SDS011;7459;53.590;10.062;2023-11-21T09:31:27;10.25;;;3.42;;
14736;SDS011;7459;53.590;10.062;2023-11-21T09:33:52;7.45;;;3.33;;
14736;SDS011;7459;53.590;10.062;2023-11-21T09:36:18;7.70;;;3.03;;
14736;SDS011;7459;53.590;10.062;2023-11-21T09:38:44;6.82;;;3.25;;
14736;SDS011;7459;53.590;10.062;2023-11-21T09:41:19;7.30;;;2.33;;
14736;SDS011;7459;53.590;10.062;2023-11-21T09:44:00;7.07;;;2.85;;
14736;SDS011;7459;53.590;10.062;2023-11-21T09:46:32;5.50;;;2.50;;
14736;SDS011;7459;53.590;10.062;2023-11-21T09:48:58;5.90;;;2.88;;
14736;SDS011;7459;53.590;10.062;2023-11-21T09:51:30;5.10;;;2.33;;
14736;SDS011;7459;53.590;10.062;2023-11-21T09:53:58;5.72;;;2.38;;
14736;SDS011;7459;53.590;10.062;2023-11-21T09:56:26;6.78;;;2.30;;
14736;SDS011;7459;53.590;10.062;2023-11-21T09:58:52;6.65;;;2.38;;
14736;SDS011;7459;53.590;10.062;2023-11-21T10:01:19;7.15;;;2.20;;
14736;SDS011;7459;53.590;10.062;2023-11-21T10:03:46;7.28;;;3.08;;
14736;SDS011;7459;53.590;10.062;2023-11-21T10:06:12;6.57;;;2.33;;
14736;SDS011;7459;53.590;10.062;2023-11-21T10:08:41;5.55;;;2.15;;
14736;SDS011;7459;53.590;10.062;2023-11-21T10:11:07;4.73;;;1.80;;
14736;SDS011;7459;53.590;10.062;2023-11-21T10:13:36;5.43;;;2.15;;
14736;SDS011;7459;53.590;10.062;2023-11-21T10:16:04;4.82;;;2.40;;
14736;SDS011;7459;53.590;10.062;2023-11-21T10:18:32;6.13;;;2.33;;
14736;SDS011;7459;53.590;10.062;2023-11-21T10:20:59;4.47;;;2.15;;
14736;SDS011;7459;53.590;10.062;2023-11-21T10:23:25;6.90;;;2.50;;
14736;SDS011;7459;53.590;10.062;2023-11-21T10:25:52;6.15;;;2.30;;
14736;SDS011;7459;53.590;10.062;2023-11-21T10:28:19;5.22;;;2.10;;
14736;SDS011;7459;53.590;10.062;2023-11-21T10:30:46;5.57;;;2.10;;
14736;SDS011;7459;53.590;10.062;2023-11-21T10:33:12;4.68;;;2.00;;
14736;SDS011;7459;53.590;10.062;2023-11-21T10:35:44;4.67;;;1.93;;
14736;SDS011;7459;53.590;10.062;2023-11-21T10:38:12;5.10;;;2.35;;
14736;SDS011;7459;53.590;10.062;2023-11-21T10:40:39;4.63;;;1.77;;
14736;SDS011;7459;53.590;10.062;2023-11-21T10:43:07;12.82;;;4.03;;
14736;SDS011;7459;53.590;10.062;2023-11-21T10:45:34;6.73;;;2.20;;
14736;SDS011;7459;53.590;10.062;2023-11-21T10:48:07;4.70;;;1.42;;
14736;SDS011;7459;53.590;10.062;2023-11-21T10:50:35;4.55;;;2.10;;
14736;SDS011;7459;53.590;10.062;2023-11-21T10:53:02;4.78;;;1.92;;
14736;SDS011;7459;53.590;10.062;2023-11-21T10:55:32;5.68;;;2.30;;
14736;SDS011;7459;53.590;10.062;2023-11-21T10:58:00;4.67;;;2.17;;
14736;SDS011;7459;53.590;10.062;2023-11-21T11:00:28;5.45;;;2.20;;
14736;SDS011;7459;53.590;10.062;2023-11-21T11:02:55;6.60;;;2.47;;
14736;SDS011;7459;53.590;10.062;2023-11-21T11:05:21;5.50;;;2.20;;
14736;SDS011;7459;53.590;10.062;2023-11-21T11:07:52;7.15;;;2.53;;
14736;SDS011;7459;53.590;10.062;2023-11-21T11:10:30;7.80;;;2.03;;
14736;SDS011;7459;53.590;10.062;2023-11-21T11:12:56;4.65;;;2.00;;
14736;SDS011;7459;53.590;10.062;2023-11-21T11:15:22;5.03;;;2.00;;
14736;SDS011;7459;53.590;10.062;2023-11-21T11:17:50;4.72;;;2.03;;
14736;SDS011;7459;53.590;10.062;2023-11-21T11:20:21;5.03;;;2.55;;
14736;SDS011;7459;53.590;10.062;2023-11-21T11:22:52;5.35;;;2.13;;
14736;SDS011;7459;53.590;10.062;2023-11-21T11:26:02;7.10;;;2.40;;
14736;SDS011;7459;53.590;10.062;2023-11-21T11:29:03;5.10;;;2.15;;
14736;SDS011;7459;53.590;10.062;2023-11-21T11:32:03;4.13;;;1.58;;
14736;SDS011;7459;53.590;10.062;2023-11-21T11:38:21;4.93;;;1.90;;
14736;SDS011;7459;53.590;10.062;2023-11-21T11:40:52;5.35;;;1.90;;
14736;SDS011;7459;53.590;10.062;2023-11-21T11:43:25;6.28;;;1.95;;
14736;SDS011;7459;53.590;10.062;2023-11-21T11:45:52;6.32;;;1.95;;
14736;SDS011;7459;53.590;10.062;2023-11-21T11:48:22;7.53;;;2.03;;
14736;SDS011;7459;53.590;10.062;2023-11-21T11:51:07;5.97;;;2.35;;
14736;SDS011;7459;53.590;10.062;2023-11-21T11:53:39;5.50;;;2.03;;
14736;SDS011;7459;53.590;10.062;2023-11-21T11:56:26;5.43;;;2.47;;
14736;SDS011;7459;53.590;10.062;2023-11-21T11:58:59;7.65;;;2.28;;
14736;SDS011;7459;53.590;10.062;2023-11-21T12:01:27;5.35;;;1.83;;
14736;SDS011;7459;53.590;10.062;2023-11-21T12:06:56;6.18;;;2.00;;
14736;SDS011;7459;53.590;10.062;2023-11-21T12:09:27;4.75;;;1.80;;
14736;SDS011;7459;53.590;10.062;2023-11-21T12:11:55;5.15;;;1.70;;
14736;SDS011;7459;53.590;10.062;2023-11-21T12:14:24;6.00;;;2.80;;
14736;SDS011;7459;53.590;10.062;2023-11-21T12:16:50;5.45;;;1.92;;
14736;SDS011;7459;53.590;10.062;2023-11-21T12:19:17;5.80;;;2.25;;
14736;SDS011;7459;53.590;10.062;2023-11-21T12:21:43;5.55;;;2.10;;
14736;SDS011;7459;53.590;10.062;2023-11-21T12:24:09;5.00;;;2.15;;
14736;SDS011;7459;53.590;10.062;2023-11-21T12:26:38;8.23;;;2.50;;
14736;SDS011;7459;53.590;10.062;2023-11-21T12:29:05;5.65;;;2.05;;
14736;SDS011;7459;53.590;10.062;2023-11-21T12:31:32;6.80;;;2.33;;
14736;SDS011;7459;53.590;10.062;2023-11-21T12:33:59;7.50;;;2.30;;
14736;SDS011;7459;53.590;10.062;2023-11-21T12:36:25;5.63;;;2.07;;
14736;SDS011;7459;53.590;10.062;2023-11-21T12:38:54;5.55;;;2.17;;
14736;SDS011;7459;53.590;10.062;2023-11-21T12:41:19;4.75;;;2.22;;
14736;SDS011;7459;53.590;10.062;2023-11-21T12:43:46;5.40;;;2.38;;
14736;SDS011;7459;53.590;10.062;2023-11-21T12:46:12;7.95;;;2.30;;
14736;SDS011;7459;53.590;10.062;2023-11-21T12:48:43;10.23;;;2.33;;
14736;SDS011;7459;53.590;10.062;2023-11-21T12:51:10;6.05;;;1.77;;
14736;SDS011;7459;53.590;10.062;2023-11-21T12:53:39;4.03;;;2.13;;
14736;SDS011;7459;53.590;10.062;2023-11-21T12:56:14;5.32;;;1.95;;
14736;SDS011;7459;53.590;10.062;2023-11-21T12:58:44;5.38;;;1.98;;
14736;SDS011;7459;53.590;10.062;2023-11-21T13:01:12;5.03;;;2.05;;
14736;SDS011;7459;53.590;10.062;2023-11-21T13:03:42;6.07;;;1.67;;
14736;SDS011;7459;53.590;10.062;2023-11-21T13:06:12;5.00;;;2.00;;
14736;SDS011;7459;53.590;10.062;2023-11-21T13:08:38;4.03;;;1.93;;
14736;SDS011;7459;53.590;10.062;2023-11-21T13:11:04;6.00;;;2.42;;
14736;SDS011;7459;53.590;10.062;2023-11-21T13:13:31;6.03;;;2.35;;
14736;SDS011;7459;53.590;10.062;2023-11-21T13:15:59;8.23;;;2.30;;
14736;SDS011;7459;53.590;10.062;2023-11-21T13:18:27;6.28;;;2.50;;
14736;SDS011;7459;53.590;10.062;2023-11-21T13:20:59;6.07;;;1.95;;
14736;SDS011;7459;53.590;10.062;2023-11-21T13:23:38;4.30;;;1.70;;
14736;SDS011;7459;53.590;10.062;2023-11-21T13:26:06;5.53;;;2.08;;
14736;SDS011;7459;53.590;10.062;2023-11-21T13:28:33;6.15;;;1.90;;
14736;SDS011;7459;53.590;10.062;2023-11-21T13:31:01;6.50;;;2.30;;
14736;SDS011;7459;53.590;10.062;2023-11-21T13:33:34;5.20;;;2.28;;
14736;SDS011;7459;53.590;10.062;2023-11-21T13:36:03;5.97;;;2.13;;
14736;SDS011;7459;53.590;10.062;2023-11-21T13:38:33;4.72;;;2.15;;
14736;SDS011;7459;53.590;10.062;2023-11-21T13:41:00;5.82;;;2.40;;
14736;SDS011;7459;53.590;10.062;2023-11-21T13:43:26;4.78;;;1.83;;
14736;SDS011;7459;53.590;10.062;2023-11-21T13:45:53;7.68;;;2.38;;
14736;SDS011;7459;53.590;10.062;2023-11-21T13:48:29;5.75;;;1.90;;
14736;SDS011;7459;53.590;10.062;2023-11-21T13:51:05;4.13;;;1.53;;
14736;SDS011;7459;53.590;10.062;2023-11-21T13:53:48;5.85;;;1.83;;
14736;SDS011;7459;53.590;10.062;2023-11-21T13:56:18;5.15;;;1.80;;
14736;SDS011;7459;53.590;10.062;2023-11-21T13:58:53;4.70;;;1.80;;
14736;SDS011;7459;53.590;10.062;2023-11-21T14:01:19;4.90;;;2.05;;
14736;SDS011;7459;53.590;10.062;2023-11-21T14:03:58;5.23;;;1.63;;
14736;SDS011;7459;53.590;10.062;2023-11-21T14:06:34;3.92;;;1.75;;
14736;SDS011;7459;53.590;10.062;2023-11-21T14:09:10;5.68;;;2.17;;
14736;SDS011;7459;53.590;10.062;2023-11-21T14:11:38;5.55;;;1.83;;
14736;SDS011;7459;53.590;10.062;2023-11-21T14:14:04;4.70;;;1.80;;
14736;SDS011;7459;53.590;10.062;2023-11-21T14:16:30;4.57;;;1.88;;
14736;SDS011;7459;53.590;10.062;2023-11-21T14:18:56;5.88;;;1.73;;
14736;SDS011;7459;53.590;10.062;2023-11-21T14:21:28;4.63;;;2.35;;
14736;SDS011;7459;53.590;10.062;2023-11-21T14:23:54;7.93;;;2.30;;
14736;SDS011;7459;53.590;10.062;2023-11-21T14:26:21;5.53;;;2.20;;
14736;SDS011;7459;53.590;10.062;2023-11-21T14:28:49;5.03;;;1.90;;
14736;SDS011;7459;53.590;10.062;2023-11-21T14:31:16;4.90;;;2.05;;
14736;SDS011;7459;53.590;10.062;2023-11-21T14:33:42;5.72;;;1.73;;
14736;SDS011;7459;53.590;10.062;2023-11-21T14:36:10;4.50;;;1.88;;
14736;SDS011;7459;53.590;10.062;2023-11-21T14:38:36;4.47;;;1.17;;
14736;SDS011;7459;53.590;10.062;2023-11-21T14:41:04;6.38;;;1.98;;
14736;SDS011;7459;53.590;10.062;2023-11-21T14:43:34;2.95;;;1.60;;
14736;SDS011;7459;53.590;10.062;2023-11-21T14:46:01;6.37;;;1.50;;
14736;SDS011;7459;53.590;10.062;2023-11-21T14:48:28;4.45;;;1.48;;
14736;SDS011;7459;53.590;10.062;2023-11-21T14:51:14;4.97;;;1.52;;
14736;SDS011;7459;53.590;10.062;2023-11-21T14:53:40;4.90;;;1.73;;